Tetide — IVTN — position and weather

sailwx.info

Track history (hours):
 
Tides and Currents Weather Stations Pressure Air Temp Water Temp Dewpoint Dewpoint Depression Visibility Wind Speed Wind Dir Waves Ship Positions

Tetide

Last reported at 2015-Jul-03 19:33 UTC. Time now 2015-Jul-03 20:18 UTC.
Position N 41°15' E 013°37'.

Length 70 m; draft 3.6 m.

Type: Passenger vessel. MMSI: 247043100.

Date/timePositionNaut miles runAvg speedWind from/ knotsBaromVisibWave heightAir tempDewpointWater temp
2015-Jul-03 19:33N 41°15' E 013°37'1212.4
2015-Jul-03 18:33N 41°06' E 013°26'1414.2
2015-Jul-03 17:34N 40°59' E 013°10'1010.1
2015-Jul-03 16:31N 40°54' E 012°58'1111.2
2015-Jul-03 15:33N 40°51' E 013°12'1111.3
2015-Jul-03 14:33N 40°48' E 013°26'0 0.0
2015-Jul-03 13:34N 40°48' E 013°26'0 0.0
2015-Jul-03 12:33N 40°48' E 013°26'7 7.4
2015-Jul-03 11:33N 40°50' E 013°17'1414.4
2015-Jul-03 10:34N 40°54' E 012°58'3 3.2
2015-Jul-03 09:33N 40°56' E 013°02'1413.6
2015-Jul-03 08:33N 41°03' E 013°17'1413.7
2015-Jul-03 07:33N 41°10' E 013°32'6 5.8
2015-Jul-03 06:33N 41°15' E 013°37'0 0.0
2015-Jul-03 05:34N 41°15' E 013°37'0 0.0
2015-Jul-03 02:27N 41°15' E 013°37'0 0.0
2015-Jul-03 01:32N 41°15' E 013°37'0 0.0
2015-Jul-03 00:32N 41°15' E 013°37'0 0.0
2015-Jul-02 23:33N 41°15' E 013°37'0 0.0
2015-Jul-02 22:19N 41°15' E 013°37'0 0.0
2015-Jul-02 21:32N 41°15' E 013°37'0 0.0
2015-Jul-02 19:23N 41°15' E 013°37'2 2.1
2015-Jul-02 18:34N 41°14' E 013°37'1414.2
2015-Jul-02 17:34N 41°00' E 013°32'1312.8
2015-Jul-02 16:33N 40°48' E 013°26'1110.9
2015-Jul-02 15:34N 40°51' E 013°12'11 4.8
2015-Jul-02 13:15N 40°54' E 012°58'5 2.9
2015-Jul-02 11:33N 40°53' E 013°04'1414.2
2015-Jul-02 10:33N 40°49' E 013°22'3 2.2
2015-Jul-02 09:14N 40°49' E 013°26'1013.9
2015-Jul-02 08:32N 40°59' E 013°30'1414.0
2015-Jul-02 07:31N 41°12' E 013°36'3 0.5
2015-Jul-02 01:23N 41°15' E 013°37'0 0.0
2015-Jul-02 00:30N 41°15' E 013°37'0 0.0
2015-Jul-01 23:33N 41°15' E 013°37'0 0.0
2015-Jul-01 22:33N 41°15' E 013°37'0 0.0
2015-Jul-01 21:33N 41°15' E 013°37'0 0.0
2015-Jul-01 20:33N 41°15' E 013°37'4 3.8
2015-Jul-01 19:33N 41°12' E 013°35'1414.0
2015-Jul-01 18:33N 41°03' E 013°21'1414.2
2015-Jul-01 17:33N 40°56' E 013°04'5 5.3
2015-Jul-01 16:33N 40°54' E 012°58'1111.3
2015-Jul-01 15:34N 40°51' E 013°12'1110.9
2015-Jul-01 14:33N 40°48' E 013°26'0 0.0
2015-Jul-01 13:33N 40°48' E 013°26'0 0.0
2015-Jul-01 12:33N 40°48' E 013°26'7 6.6
2015-Jul-01 11:33N 40°50' E 013°18'1414.2
2015-Jul-01 10:33N 40°54' E 012°60'1 1.4
2015-Jul-01 09:33N 40°55' E 013°01'3014.0
2015-Jul-01 07:24N 41°11' E 013°34'4 2.2
2015-Jul-01 05:24N 41°15' E 013°37'0 0.0
2015-Jul-01 04:28N 41°15' E 013°37'0 0.0
2015-Jul-01 01:32N 41°15' E 013°37'0 0.0
2015-Jul-01 00:32N 41°15' E 013°37'0 0.0
2015-Jun-30 23:16N 41°15' E 013°37'0 0.0
2015-Jun-30 22:32N 41°15' E 013°37'4 1.0
2015-Jun-30 18:32N 41°12' E 013°37'1313.7
2015-Jun-30 17:33N 40°59' E 013°31'1110.0
2015-Jun-30 16:24N 40°48' E 013°26'1113.0
2015-Jun-30 15:33N 40°51' E 013°12'11 3.6
2015-Jun-30 12:29N 40°54' E 012°58'1 1.0
2015-Jun-30 11:28N 40°54' E 012°59'1514.0
2015-Jun-30 10:22N 40°50' E 013°19'6 6.4
2015-Jun-30 09:26N 40°48' E 013°26'1011.4
2015-Jun-30 08:33N 40°58' E 013°30'18 1.5
2015-Jun-29 20:26N 41°15' E 013°37'8 8.8
2015-Jun-29 19:33N 41°08' E 013°35'1413.8
2015-Jun-29 18:33N 40°55' E 013°29'7 6.7
2015-Jun-29 17:31N 40°49' E 013°24'16 6.5
2015-Jun-29 15:06N 40°57' E 013°06'813.6
2015-Jun-29 14:32N 41°01' E 013°14'1613.6
2015-Jun-29 13:22N 41°10' E 013°32'7 7.9
2015-Jun-29 12:32N 41°15' E 013°37'9 9.3
2015-Jun-29 11:33N 41°08' E 013°29'1514.5
2015-Jun-29 10:33N 41°00' E 013°13'13 8.5
2015-Jun-29 09:05N 40°54' E 012°58'812.6
2015-Jun-29 08:28N 40°58' E 013°07'28 2.8
2015-Jun-28 22:31N 41°15' E 013°37'0 0.0
2015-Jun-28 21:32N 41°15' E 013°37'0 0.0
2015-Jun-28 20:19N 41°15' E 013°37'0 0.0
2015-Jun-28 19:34N 41°15' E 013°37'0 0.0
2015-Jun-28 18:33N 41°15' E 013°37'0 0.2
2015-Jun-28 17:33N 41°15' E 013°37'1413.6
2015-Jun-28 16:32N 41°02' E 013°32'1414.0
2015-Jun-28 15:34N 40°49' E 013°26'10 4.9
2015-Jun-28 13:33N 40°58' E 013°31'1513.9
2015-Jun-28 12:29N 41°13' E 013°37'0 0.5
2015-Jun-28 11:33N 41°12' E 013°36'1714.4
2015-Jun-28 10:21N 40°56' E 013°29'8 8.0
2015-Jun-28 09:21N 40°48' E 013°26'1214.1
2015-Jun-28 08:31N 40°59' E 013°30'17 1.4
2015-Jun-27 20:31N 41°15' E 013°37'0 0.0
2015-Jun-27 19:33N 41°15' E 013°37'0 0.0
2015-Jun-27 18:33N 41°15' E 013°37'0 0.2
2015-Jun-27 17:33N 41°15' E 013°37'2113.9
2015-Jun-27 16:03N 40°55' E 013°29'8 4.6
2015-Jun-27 14:24N 40°48' E 013°26'0 0.0
2015-Jun-27 13:28N 40°48' E 013°26'0 0.0
2015-Jun-27 12:31N 40°48' E 013°26'0 0.0
2015-Jun-27 11:30N 40°48' E 013°26'0 0.0
2015-Jun-27 10:33N 40°48' E 013°26'0 0.0
2015-Jun-27 09:33N 40°48' E 013°26'1312.5
2015-Jun-27 08:33N 40°60' E 013°31'16 1.1
2015-Jun-26 18:32N 41°15' E 013°37'1 1.4
2015-Jun-26 17:28N 41°14' E 013°37'1314.0
2015-Jun-26 16:31N 41°01' E 013°32'1412.2
2015-Jun-26 15:22N 40°48' E 013°26'0 0.0
2015-Jun-26 14:32N 40°48' E 013°26'0 0.0
2015-Jun-26 12:21N 40°48' E 013°26'0 0.0
2015-Jun-26 09:26N 40°48' E 013°26'1112.7
2015-Jun-26 08:33N 40°59' E 013°31'17 1.1
2015-Jun-25 17:33N 41°15' E 013°37'1414.0
2015-Jun-25 16:33N 41°01' E 013°32'1413.8
2015-Jun-25 15:33N 40°48' E 013°26'0 0.5
2015-Jun-25 14:33N 40°48' E 013°26'0 0.0
2015-Jun-25 13:31N 40°48' E 013°26'0 0.0
2015-Jun-25 12:26N 40°48' E 013°26'0 0.0
2015-Jun-25 11:32N 40°48' E 013°26'0 0.1
2015-Jun-25 09:24N 40°48' E 013°26'8 0.5
2015-Jun-24 16:10N 40°56' E 013°29'20 1.2
2015-Jun-23 23:14N 41°15' E 013°37'0 0.0
2015-Jun-23 22:33N 41°15' E 013°37'0 0.0
2015-Jun-23 21:16N 41°15' E 013°37'0 0.0
2015-Jun-23 20:33N 41°15' E 013°37'0 0.0
2015-Jun-23 19:33N 41°15' E 013°37'  
Track history (hours):
 
Tides and Currents Weather Stations Pressure Air Temp Water Temp Dewpoint Dewpoint Depression Visibility Wind Speed Wind Dir Waves Ship Positions

Tetide

Last reported at 2015-Jul-03 19:33 UTC. Time now 2015-Jul-03 20:18 UTC.
Position N 41°15' E 013°37'.

Length 70 m; draft 3.6 m.

Type: Passenger vessel. MMSI: 247043100.

Date/timePositionNaut miles runAvg speedWind from/ knotsBaromVisibWave heightAir tempDewpointWater temp
2015-Jul-03 19:33N 41°15' E 013°37'1212.4
2015-Jul-03 18:33N 41°06' E 013°26'1414.2
2015-Jul-03 17:34N 40°59' E 013°10'1010.1
2015-Jul-03 16:31N 40°54' E 012°58'1111.2
2015-Jul-03 15:33N 40°51' E 013°12'1111.3
2015-Jul-03 14:33N 40°48' E 013°26'0 0.0
2015-Jul-03 13:34N 40°48' E 013°26'0 0.0
2015-Jul-03 12:33N 40°48' E 013°26'7 7.4
2015-Jul-03 11:33N 40°50' E 013°17'1414.4
2015-Jul-03 10:34N 40°54' E 012°58'3 3.2
2015-Jul-03 09:33N 40°56' E 013°02'1413.6
2015-Jul-03 08:33N 41°03' E 013°17'1413.7
2015-Jul-03 07:33N 41°10' E 013°32'6 5.8
2015-Jul-03 06:33N 41°15' E 013°37'0 0.0
2015-Jul-03 05:34N 41°15' E 013°37'0 0.0
2015-Jul-03 02:27N 41°15' E 013°37'0 0.0
2015-Jul-03 01:32N 41°15' E 013°37'0 0.0
2015-Jul-03 00:32N 41°15' E 013°37'0 0.0
2015-Jul-02 23:33N 41°15' E 013°37'0 0.0
2015-Jul-02 22:19N 41°15' E 013°37'0 0.0
2015-Jul-02 21:32N 41°15' E 013°37'0 0.0
2015-Jul-02 19:23N 41°15' E 013°37'2 2.1
2015-Jul-02 18:34N 41°14' E 013°37'1414.2
2015-Jul-02 17:34N 41°00' E 013°32'1312.8
2015-Jul-02 16:33N 40°48' E 013°26'1110.9
2015-Jul-02 15:34N 40°51' E 013°12'11 4.8
2015-Jul-02 13:15N 40°54' E 012°58'5 2.9
2015-Jul-02 11:33N 40°53' E 013°04'1414.2
2015-Jul-02 10:33N 40°49' E 013°22'3 2.2
2015-Jul-02 09:14N 40°49' E 013°26'1013.9
2015-Jul-02 08:32N 40°59' E 013°30'1414.0
2015-Jul-02 07:31N 41°12' E 013°36'3 0.5
2015-Jul-02 01:23N 41°15' E 013°37'0 0.0
2015-Jul-02 00:30N 41°15' E 013°37'0 0.0
2015-Jul-01 23:33N 41°15' E 013°37'0 0.0
2015-Jul-01 22:33N 41°15' E 013°37'0 0.0
2015-Jul-01 21:33N 41°15' E 013°37'0 0.0
2015-Jul-01 20:33N 41°15' E 013°37'4 3.8
2015-Jul-01 19:33N 41°12' E 013°35'1414.0
2015-Jul-01 18:33N 41°03' E 013°21'1414.2
2015-Jul-01 17:33N 40°56' E 013°04'5 5.3
2015-Jul-01 16:33N 40°54' E 012°58'1111.3
2015-Jul-01 15:34N 40°51' E 013°12'1110.9
2015-Jul-01 14:33N 40°48' E 013°26'0 0.0
2015-Jul-01 13:33N 40°48' E 013°26'0 0.0
2015-Jul-01 12:33N 40°48' E 013°26'7 6.6
2015-Jul-01 11:33N 40°50' E 013°18'1414.2
2015-Jul-01 10:33N 40°54' E 012°60'1 1.4
2015-Jul-01 09:33N 40°55' E 013°01'3014.0
2015-Jul-01 07:24N 41°11' E 013°34'4 2.2
2015-Jul-01 05:24N 41°15' E 013°37'0 0.0
2015-Jul-01 04:28N 41°15' E 013°37'0 0.0
2015-Jul-01 01:32N 41°15' E 013°37'0 0.0
2015-Jul-01 00:32N 41°15' E 013°37'0 0.0
2015-Jun-30 23:16N 41°15' E 013°37'0 0.0
2015-Jun-30 22:32N 41°15' E 013°37'4 1.0
2015-Jun-30 18:32N 41°12' E 013°37'1313.7
2015-Jun-30 17:33N 40°59' E 013°31'1110.0
2015-Jun-30 16:24N 40°48' E 013°26'1113.0
2015-Jun-30 15:33N 40°51' E 013°12'11 3.6
2015-Jun-30 12:29N 40°54' E 012°58'1 1.0
2015-Jun-30 11:28N 40°54' E 012°59'1514.0
2015-Jun-30 10:22N 40°50' E 013°19'6 6.4
2015-Jun-30 09:26N 40°48' E 013°26'1011.4
2015-Jun-30 08:33N 40°58' E 013°30'18 1.5
2015-Jun-29 20:26N 41°15' E 013°37'8 8.8
2015-Jun-29 19:33N 41°08' E 013°35'1413.8
2015-Jun-29 18:33N 40°55' E 013°29'7 6.7
2015-Jun-29 17:31N 40°49' E 013°24'16 6.5
2015-Jun-29 15:06N 40°57' E 013°06'813.6
2015-Jun-29 14:32N 41°01' E 013°14'1613.6
2015-Jun-29 13:22N 41°10' E 013°32'7 7.9
2015-Jun-29 12:32N 41°15' E 013°37'9 9.3
2015-Jun-29 11:33N 41°08' E 013°29'1514.5
2015-Jun-29 10:33N 41°00' E 013°13'13 8.5
2015-Jun-29 09:05N 40°54' E 012°58'812.6
2015-Jun-29 08:28N 40°58' E 013°07'28 2.8
2015-Jun-28 22:31N 41°15' E 013°37'0 0.0
2015-Jun-28 21:32N 41°15' E 013°37'0 0.0
2015-Jun-28 20:19N 41°15' E 013°37'0 0.0
2015-Jun-28 19:34N 41°15' E 013°37'0 0.0
2015-Jun-28 18:33N 41°15' E 013°37'0 0.2
2015-Jun-28 17:33N 41°15' E 013°37'1413.6
2015-Jun-28 16:32N 41°02' E 013°32'1414.0
2015-Jun-28 15:34N 40°49' E 013°26'10 4.9
2015-Jun-28 13:33N 40°58' E 013°31'1513.9
2015-Jun-28 12:29N 41°13' E 013°37'0 0.5
2015-Jun-28 11:33N 41°12' E 013°36'1714.4
2015-Jun-28 10:21N 40°56' E 013°29'8 8.0
2015-Jun-28 09:21N 40°48' E 013°26'1214.1
2015-Jun-28 08:31N 40°59' E 013°30'17 1.4
2015-Jun-27 20:31N 41°15' E 013°37'0 0.0
2015-Jun-27 19:33N 41°15' E 013°37'0 0.0
2015-Jun-27 18:33N 41°15' E 013°37'0 0.2
2015-Jun-27 17:33N 41°15' E 013°37'2113.9
2015-Jun-27 16:03N 40°55' E 013°29'8 4.6
2015-Jun-27 14:24N 40°48' E 013°26'0 0.0
2015-Jun-27 13:28N 40°48' E 013°26'0 0.0
2015-Jun-27 12:31N 40°48' E 013°26'0 0.0
2015-Jun-27 11:30N 40°48' E 013°26'0 0.0
2015-Jun-27 10:33N 40°48' E 013°26'0 0.0
2015-Jun-27 09:33N 40°48' E 013°26'1312.5
2015-Jun-27 08:33N 40°60' E 013°31'16 1.1
2015-Jun-26 18:32N 41°15' E 013°37'1 1.4
2015-Jun-26 17:28N 41°14' E 013°37'1314.0
2015-Jun-26 16:31N 41°01' E 013°32'1412.2
2015-Jun-26 15:22N 40°48' E 013°26'0 0.0
2015-Jun-26 14:32N 40°48' E 013°26'0 0.0
2015-Jun-26 12:21N 40°48' E 013°26'0 0.0
2015-Jun-26 09:26N 40°48' E 013°26'1112.7
2015-Jun-26 08:33N 40°59' E 013°31'17 1.1
2015-Jun-25 17:33N 41°15' E 013°37'1414.0
2015-Jun-25 16:33N 41°01' E 013°32'1413.8
2015-Jun-25 15:33N 40°48' E 013°26'0 0.5
2015-Jun-25 14:33N 40°48' E 013°26'0 0.0
2015-Jun-25 13:31N 40°48' E 013°26'0 0.0
2015-Jun-25 12:26N 40°48' E 013°26'0 0.0
2015-Jun-25 11:32N 40°48' E 013°26'0 0.1
2015-Jun-25 09:24N 40°48' E 013°26'8 0.5
2015-Jun-24 16:10N 40°56' E 013°29'20 1.2
2015-Jun-23 23:14N 41°15' E 013°37'0 0.0
2015-Jun-23 22:33N 41°15' E 013°37'0 0.0
2015-Jun-23 21:16N 41°15' E 013°37'0 0.0
2015-Jun-23 20:33N 41°15' E 013°37'0 0.0
2015-Jun-23 19:33N 41°15' E 013°37'  

Dump ship's entire track history